createdAt,value
2022-08-19T00:00:15.838Z,24.24
2022-08-19T00:02:50.087Z,24.16
2022-08-19T00:05:20.885Z,24.40
2022-08-19T00:07:50.715Z,24.77
2022-08-19T00:10:21.867Z,24.75
2022-08-19T00:12:50.595Z,24.92
2022-08-19T00:15:22.456Z,24.78
2022-08-19T00:17:51.347Z,24.88
2022-08-19T00:20:23.062Z,24.87
2022-08-19T00:22:53.122Z,24.77
2022-08-19T00:25:29.856Z,24.64
2022-08-19T00:28:00.632Z,24.53
2022-08-19T00:30:30.977Z,24.10
2022-08-19T00:33:00.456Z,24.07
2022-08-19T00:35:30.874Z,23.91
2022-08-19T00:37:59.713Z,23.95
2022-08-19T00:40:27.669Z,24.03
2022-08-19T00:42:56.788Z,24.19
2022-08-19T00:45:31.831Z,24.34
2022-08-19T00:48:05.302Z,23.95
2022-08-19T00:50:51.961Z,23.76
2022-08-19T00:53:24.041Z,23.98
2022-08-19T00:55:56.154Z,24.30
2022-08-19T00:58:30.187Z,24.15
2022-08-19T01:00:59.722Z,24.36
2022-08-19T01:03:28.578Z,24.68
2022-08-19T01:05:58.861Z,24.72
2022-08-19T01:08:30.062Z,24.77
2022-08-19T01:11:02.231Z,24.75
2022-08-19T01:13:48.952Z,24.76
2022-08-19T01:16:25.409Z,24.90
2022-08-19T01:18:57.088Z,24.78
2022-08-19T01:21:49.629Z,24.63
2022-08-19T01:24:18.282Z,24.49
2022-08-19T01:26:49.074Z,24.66
2022-08-19T01:29:17.207Z,24.58
2022-08-19T01:31:45.833Z,24.35
2022-08-19T01:34:14.165Z,24.47
2022-08-19T01:36:48.773Z,24.30
2022-08-19T01:39:21.138Z,24.01
2022-08-19T01:41:50.252Z,24.18
2022-08-19T01:44:24.666Z,24.14
2022-08-19T01:46:54.821Z,24.15
2022-08-19T01:49:26.361Z,24.32
2022-08-19T01:51:55.258Z,24.52
2022-08-19T01:54:27.422Z,24.49
2022-08-19T01:57:07.903Z,24.52
2022-08-19T01:59:38.452Z,24.52
2022-08-19T02:02:11.695Z,24.22
2022-08-19T02:04:40.996Z,23.97
2022-08-19T02:07:09.458Z,23.79
2022-08-19T02:09:38.643Z,24.05
2022-08-19T02:12:09.202Z,23.96
2022-08-19T02:14:37.980Z,24.08
2022-08-19T02:17:07.368Z,24.33
2022-08-19T02:19:39.495Z,24.19
2022-08-19T02:22:08.665Z,24.06
2022-08-19T02:24:37.183Z,24.31
2022-08-19T02:27:06.972Z,24.39
2022-08-19T02:29:36.961Z,24.31
2022-08-19T02:32:05.582Z,23.99
2022-08-19T02:34:34.986Z,23.93
2022-08-19T02:37:04.003Z,24.02
2022-08-19T02:39:32.869Z,24.07
2022-08-19T02:42:01.291Z,24.02
2022-08-19T02:44:32.011Z,23.84
2022-08-19T02:47:00.497Z,23.93
2022-08-19T02:49:30.190Z,23.99
2022-08-19T02:52:04.445Z,24.07
2022-08-19T02:54:34.508Z,23.89
2022-08-19T02:57:06.923Z,23.97
2022-08-19T02:59:35.674Z,24.00
2022-08-19T03:02:04.833Z,24.18
2022-08-19T03:04:34.735Z,24.30
2022-08-19T03:07:10.903Z,24.10
2022-08-19T03:09:39.416Z,24.35
2022-08-19T03:12:08.542Z,24.27
2022-08-19T03:14:37.800Z,24.02
2022-08-19T03:17:07.986Z,24.09
2022-08-19T03:19:36.778Z,24.12
2022-08-19T03:22:08.136Z,23.81
2022-08-19T03:24:36.978Z,23.96
2022-08-19T03:27:06.163Z,24.07
2022-08-19T03:29:43.889Z,23.88
2022-08-19T03:32:31.669Z,23.72
2022-08-19T03:35:01.528Z,23.57
2022-08-19T03:37:33.394Z,23.60
2022-08-19T03:40:01.332Z,23.72
2022-08-19T03:42:38.634Z,24.15
2022-08-19T03:45:20.720Z,24.44
2022-08-19T03:47:49.243Z,24.53
2022-08-19T03:50:20.813Z,24.66
2022-08-19T03:52:53.020Z,24.30
2022-08-19T03:55:21.825Z,23.97
2022-08-19T03:57:50.216Z,24.05
2022-08-19T04:00:19.111Z,23.97
2022-08-19T04:02:58.384Z,24.13
2022-08-19T04:05:30.347Z,24.19
2022-08-19T04:08:01.665Z,24.17
2022-08-19T04:10:30.536Z,24.20
2022-08-19T04:13:02.173Z,24.19
2022-08-19T04:15:34.565Z,24.15
2022-08-19T04:18:08.839Z,24.08
2022-08-19T04:20:46.727Z,23.95
2022-08-19T04:23:16.733Z,23.80
2022-08-19T04:25:45.873Z,23.73
2022-08-19T04:28:14.414Z,23.71
2022-08-19T04:30:48.365Z,23.79
2022-08-19T04:33:19.843Z,23.77
2022-08-19T04:35:59.449Z,23.88
2022-08-19T04:38:28.543Z,23.66
2022-08-19T04:41:15.760Z,23.72
2022-08-19T04:43:50.541Z,23.67
2022-08-19T04:46:39.268Z,23.69
2022-08-19T04:49:10.510Z,23.81
2022-08-19T04:51:44.521Z,23.88
2022-08-19T04:54:15.169Z,23.79
2022-08-19T04:57:07.385Z,23.92
2022-08-19T04:59:37.667Z,24.17
2022-08-19T05:02:06.741Z,24.20
2022-08-19T05:04:37.879Z,23.96
2022-08-19T05:07:11.117Z,24.06
2022-08-19T05:09:57.947Z,24.17
2022-08-19T05:12:29.554Z,24.11
2022-08-19T05:14:59.616Z,23.97
2022-08-19T05:17:32.390Z,24.16
2022-08-19T05:20:41.021Z,24.29
2022-08-19T05:23:20.455Z,24.36
2022-08-19T05:25:51.555Z,24.28
2022-08-19T05:28:21.694Z,24.30
2022-08-19T05:30:52.601Z,24.34
2022-08-19T05:33:21.470Z,24.59
2022-08-19T05:35:50.563Z,24.68
2022-08-19T05:38:21.037Z,24.84
2022-08-19T05:40:50.514Z,24.79
2022-08-19T05:43:19.427Z,24.83
2022-08-19T05:45:47.332Z,24.78
2022-08-19T05:48:18.574Z,24.69
2022-08-19T05:50:47.955Z,24.62
2022-08-19T05:53:17.498Z,24.59
2022-08-19T05:55:46.435Z,24.67
2022-08-19T05:58:14.417Z,24.56
2022-08-19T06:00:46.194Z,24.69
2022-08-19T06:03:15.175Z,24.80
2022-08-19T06:05:49.651Z,24.85
2022-08-19T06:08:35.041Z,24.96
2022-08-19T06:11:39.617Z,25.06
2022-08-19T06:14:16.594Z,25.20
2022-08-19T06:16:46.428Z,25.37
2022-08-19T06:19:18.486Z,25.39
2022-08-19T06:21:49.050Z,25.49
2022-08-19T06:24:25.149Z,25.58
2022-08-19T06:26:59.242Z,25.69
2022-08-19T06:29:31.300Z,25.78
2022-08-19T06:32:01.396Z,25.91
2022-08-19T06:34:31.852Z,25.98
2022-08-19T06:37:03.047Z,26.06
2022-08-19T06:39:35.201Z,26.17
2022-08-19T06:42:10.295Z,26.27
2022-08-19T06:44:42.571Z,26.36
2022-08-19T06:47:23.732Z,26.45
2022-08-19T06:50:01.267Z,26.52
2022-08-19T06:52:36.587Z,26.65
2022-08-19T06:55:07.722Z,26.85
2022-08-19T06:57:36.821Z,27.04
2022-08-19T07:00:13.068Z,27.22
2022-08-19T07:02:49.804Z,27.28
2022-08-19T07:05:24.422Z,27.40
2022-08-19T07:07:58.230Z,27.51
2022-08-19T07:10:32.813Z,27.59
2022-08-19T07:13:01.655Z,27.71
2022-08-19T07:15:32.119Z,27.82
2022-08-19T07:18:01.163Z,27.94
2022-08-19T07:20:30.648Z,27.94
2022-08-19T07:22:59.900Z,27.96
2022-08-19T07:25:33.353Z,28.06
2022-08-19T07:28:01.658Z,28.21
2022-08-19T07:30:33.980Z,28.17
2022-08-19T07:33:03.533Z,28.21
2022-08-19T07:35:40.674Z,28.36
2022-08-19T07:38:08.578Z,28.48
2022-08-19T07:40:37.631Z,28.53
2022-08-19T07:43:06.233Z,28.61
2022-08-19T07:45:35.107Z,28.74
2022-08-19T07:48:05.535Z,28.67
2022-08-19T07:50:36.161Z,28.63
2022-08-19T07:53:03.814Z,28.74
2022-08-19T07:55:41.471Z,28.75
2022-08-19T07:58:15.771Z,28.81
2022-08-19T08:00:47.516Z,28.93
2022-08-19T08:03:20.282Z,29.00
2022-08-19T08:06:08.649Z,29.00
2022-08-19T08:08:48.356Z,29.26
2022-08-19T08:11:20.695Z,29.37
2022-08-19T08:14:00.313Z,29.51
2022-08-19T08:16:33.106Z,29.57
2022-08-19T08:19:18.202Z,29.80
2022-08-19T08:21:57.379Z,29.98
2022-08-19T08:24:29.127Z,30.10
2022-08-19T08:26:59.823Z,30.25
2022-08-19T08:29:34.452Z,30.12
2022-08-19T08:32:14.842Z,30.39
2022-08-19T08:34:44.470Z,30.57
2022-08-19T08:37:16.825Z,30.61
2022-08-19T08:39:45.515Z,30.70
2022-08-19T08:42:33.682Z,30.87
2022-08-19T08:45:16.879Z,31.07
2022-08-19T08:47:51.153Z,31.10
2022-08-19T08:50:36.709Z,31.09
2022-08-19T08:53:11.725Z,31.09
2022-08-19T08:55:42.588Z,31.15
2022-08-19T08:58:17.095Z,31.01
2022-08-19T09:00:48.550Z,31.17
2022-08-19T09:03:31.518Z,31.31
2022-08-19T09:06:13.091Z,31.38
2022-08-19T09:09:16.117Z,31.50
2022-08-19T09:12:17.201Z,31.81
2022-08-19T09:15:01.205Z,31.82
2022-08-19T09:17:36.241Z,31.87
2022-08-19T09:20:10.576Z,32.04
2022-08-19T09:22:45.422Z,32.32
2022-08-19T09:25:17.940Z,32.15
2022-08-19T09:28:02.781Z,32.14
2022-08-19T09:30:41.725Z,32.05
2022-08-19T09:33:10.272Z,32.06
2022-08-19T09:35:49.971Z,32.25
2022-08-19T09:38:22.795Z,32.58
2022-08-19T09:40:52.333Z,32.50
2022-08-19T09:43:32.606Z,32.77
2022-08-19T09:46:03.103Z,33.10
2022-08-19T09:48:33.320Z,33.08
2022-08-19T09:51:07.808Z,32.98
2022-08-19T09:53:41.440Z,33.09
2022-08-19T09:56:09.925Z,33.14
2022-08-19T09:58:39.944Z,33.02
2022-08-19T10:01:09.234Z,33.20
2022-08-19T10:03:38.974Z,33.14
2022-08-19T10:06:15.228Z,33.49
2022-08-19T10:08:49.973Z,33.47
2022-08-19T10:11:28.139Z,33.72
2022-08-19T10:14:08.503Z,33.74
2022-08-19T10:16:39.742Z,33.75
2022-08-19T10:19:16.546Z,34.08
2022-08-19T10:21:55.637Z,33.91
2022-08-19T10:24:29.901Z,34.35
2022-08-19T10:26:59.886Z,34.65
2022-08-19T10:29:32.865Z,34.76
2022-08-19T10:32:04.202Z,34.67
2022-08-19T10:34:32.377Z,33.93
2022-08-19T10:37:10.888Z,34.46
2022-08-19T10:39:44.016Z,34.68
2022-08-19T10:42:18.202Z,35.01
2022-08-19T10:44:47.824Z,35.02
2022-08-19T10:47:24.994Z,35.11
2022-08-19T10:50:14.966Z,34.41
2022-08-19T10:52:49.939Z,35.11
2022-08-19T10:55:40.801Z,34.74
2022-08-19T10:58:15.092Z,34.88
2022-08-19T11:00:44.469Z,34.70
2022-08-19T11:03:13.571Z,34.10
2022-08-19T11:05:43.267Z,33.84
2022-08-19T11:08:23.426Z,34.48
2022-08-19T11:10:56.462Z,34.27
2022-08-19T11:13:24.650Z,34.18
2022-08-19T11:16:11.235Z,34.21
2022-08-19T11:18:50.760Z,33.82
2022-08-19T11:21:28.874Z,33.95
2022-08-19T11:24:01.116Z,34.23
2022-08-19T11:26:30.753Z,34.00
2022-08-19T11:29:01.954Z,34.18
2022-08-19T11:31:37.919Z,34.21
2022-08-19T11:34:10.604Z,34.09
2022-08-19T11:36:42.885Z,34.03
2022-08-19T11:39:15.069Z,34.23
2022-08-19T11:41:43.528Z,34.08
2022-08-19T11:44:15.249Z,34.37
2022-08-19T11:46:48.038Z,34.49
2022-08-19T11:49:19.924Z,34.74
2022-08-19T11:51:51.132Z,34.98
2022-08-19T11:54:20.229Z,34.69
2022-08-19T11:56:50.201Z,34.82
2022-08-19T11:59:19.320Z,34.78
2022-08-19T12:01:47.534Z,34.51
2022-08-19T12:07:13.461Z,35.04
2022-08-19T12:09:44.044Z,35.34
2022-08-19T12:12:14.115Z,35.22
2022-08-19T12:14:42.272Z,35.58
2022-08-19T12:17:10.677Z,35.54
2022-08-19T12:19:40.805Z,35.91
2022-08-19T12:22:09.586Z,35.89
2022-08-19T12:24:38.592Z,36.12
2022-08-19T12:27:12.582Z,36.65
2022-08-19T12:29:42.677Z,36.90
2022-08-19T12:32:19.821Z,37.07
2022-08-19T12:34:48.518Z,37.86
2022-08-19T12:37:16.323Z,38.04
2022-08-19T12:39:44.986Z,38.02
2022-08-19T12:42:15.521Z,38.15
2022-08-19T12:44:44.626Z,38.68
2022-08-19T12:47:19.622Z,38.91
2022-08-19T12:49:54.467Z,38.90
2022-08-19T12:52:28.659Z,39.01
2022-08-19T12:54:58.861Z,38.57
2022-08-19T12:57:37.263Z,38.87
2022-08-19T13:00:16.834Z,39.28
2022-08-19T13:02:54.549Z,38.85
2022-08-19T13:05:27.190Z,38.82
2022-08-19T13:08:00.656Z,38.71
2022-08-19T13:10:39.769Z,38.45
2022-08-19T13:13:10.868Z,37.74
2022-08-19T13:15:43.954Z,36.80
2022-08-19T13:18:15.400Z,36.38
2022-08-19T13:20:52.488Z,35.72
2022-08-19T13:23:22.917Z,34.99
2022-08-19T13:26:04.885Z,34.47
2022-08-19T13:28:52.837Z,34.04
2022-08-19T13:31:43.794Z,33.71
2022-08-19T13:34:12.912Z,33.37
2022-08-19T13:36:41.857Z,33.17
2022-08-19T13:39:11.281Z,32.87
2022-08-19T13:41:48.891Z,32.79
2022-08-19T13:44:20.443Z,32.62
2022-08-19T13:46:54.330Z,32.65
2022-08-19T13:49:24.322Z,32.49
2022-08-19T13:51:52.426Z,32.45
2022-08-19T13:54:24.101Z,32.25
2022-08-19T13:56:52.262Z,32.32
2022-08-19T13:59:20.360Z,32.08
2022-08-19T14:01:52.707Z,31.76
2022-08-19T14:04:21.412Z,31.52
2022-08-19T14:06:50.293Z,31.27
2022-08-19T14:09:19.285Z,31.37
2022-08-19T14:11:48.544Z,31.24
2022-08-19T14:14:16.654Z,31.31
2022-08-19T14:16:46.609Z,31.33
2022-08-19T14:19:14.322Z,31.19
2022-08-19T14:21:43.175Z,31.19
2022-08-19T14:24:11.297Z,30.96
2022-08-19T14:26:40.122Z,30.46
2022-08-19T14:29:08.313Z,30.36
2022-08-19T14:31:37.463Z,30.02
2022-08-19T14:34:06.258Z,30.13
2022-08-19T14:36:39.352Z,29.75
2022-08-19T14:39:08.680Z,29.84
2022-08-19T14:41:37.544Z,29.20
2022-08-19T14:44:05.135Z,28.83
2022-08-19T14:46:35.395Z,28.87
2022-08-19T14:49:09.419Z,28.76
2022-08-19T14:51:38.926Z,28.31
2022-08-19T14:54:07.764Z,28.37
2022-08-19T14:56:37.988Z,28.11
2022-08-19T14:59:07.489Z,27.88
2022-08-19T15:01:36.363Z,28.13
2022-08-19T15:04:07.605Z,28.23
2022-08-19T15:06:40.109Z,28.35
2022-08-19T15:09:12.742Z,27.74
2022-08-19T15:11:41.386Z,27.53
2022-08-19T15:14:11.251Z,27.54
2022-08-19T15:16:45.283Z,27.30
2022-08-19T15:19:13.356Z,27.49
2022-08-19T15:21:43.122Z,27.49
2022-08-19T15:24:11.600Z,27.25
2022-08-19T15:26:41.065Z,27.17
2022-08-19T15:29:10.828Z,26.79
2022-08-19T15:31:39.337Z,26.81
2022-08-19T15:34:08.584Z,26.99
2022-08-19T15:36:39.412Z,26.78
2022-08-19T15:39:10.271Z,26.96
2022-08-19T15:41:38.835Z,26.64
2022-08-19T15:44:10.635Z,26.48
2022-08-19T15:46:40.648Z,26.60
2022-08-19T15:49:11.823Z,26.73
2022-08-19T15:51:43.582Z,26.67
2022-08-19T15:54:17.738Z,26.67
2022-08-19T15:57:04.825Z,26.59
2022-08-19T16:00:02.442Z,26.30
2022-08-19T16:02:53.679Z,26.04
2022-08-19T16:05:46.574Z,26.04
2022-08-19T16:08:15.906Z,26.16
2022-08-19T16:10:44.614Z,26.01
2022-08-19T16:13:12.454Z,26.39
2022-08-19T16:15:42.196Z,26.15
2022-08-19T16:18:11.704Z,25.79
2022-08-19T16:20:44.600Z,25.61
2022-08-19T16:23:16.778Z,25.58
2022-08-19T16:25:45.833Z,25.44
2022-08-19T16:28:15.840Z,25.42
2022-08-19T16:30:51.067Z,25.43
2022-08-19T16:33:22.799Z,25.46
2022-08-19T16:35:59.226Z,25.18
2022-08-19T16:38:30.880Z,24.79
2022-08-19T16:41:02.173Z,24.82
2022-08-19T16:43:32.882Z,24.88
2022-08-19T16:46:02.880Z,24.64
2022-08-19T16:48:34.430Z,24.62
2022-08-19T16:51:07.345Z,24.67
2022-08-19T16:53:37.151Z,24.62
2022-08-19T16:56:07.608Z,24.10
2022-08-19T16:58:38.860Z,24.08
2022-08-19T17:01:11.761Z,23.76
2022-08-19T17:03:41.035Z,23.79
2022-08-19T17:06:20.625Z,23.52
2022-08-19T17:08:55.748Z,23.66
2022-08-19T17:11:27.547Z,23.91
2022-08-19T17:13:59.371Z,24.14
2022-08-19T17:16:32.491Z,24.12
2022-08-19T17:19:07.374Z,23.84
2022-08-19T17:21:41.328Z,23.76
2022-08-19T17:24:11.759Z,23.55
2022-08-19T17:26:42.178Z,23.39
2022-08-19T17:29:11.997Z,23.32
2022-08-19T17:31:40.381Z,23.55
2022-08-19T17:34:10.765Z,23.99
2022-08-19T17:36:40.906Z,24.38
2022-08-19T17:39:09.482Z,24.17
2022-08-19T17:41:38.523Z,24.20
2022-08-19T17:44:08.047Z,24.20
2022-08-19T17:46:36.754Z,24.39
2022-08-19T17:49:07.039Z,24.25
2022-08-19T17:51:36.631Z,24.10
2022-08-19T17:54:06.756Z,24.28
2022-08-19T17:56:35.357Z,24.54
2022-08-19T17:59:08.479Z,24.79
2022-08-19T18:01:53.771Z,24.73
2022-08-19T18:04:25.248Z,24.34
2022-08-19T18:06:55.771Z,24.28
2022-08-19T18:09:41.983Z,24.57
2022-08-19T18:12:14.249Z,24.85
2022-08-19T18:14:43.739Z,24.69
2022-08-19T18:17:23.435Z,24.92
2022-08-19T18:19:54.645Z,24.91
2022-08-19T18:22:27.748Z,24.50
2022-08-19T18:24:58.515Z,24.44
2022-08-19T18:27:28.359Z,24.43
2022-08-19T18:29:59.570Z,24.42
2022-08-19T18:32:38.841Z,24.50
2022-08-19T18:35:11.875Z,24.46
2022-08-19T18:37:42.198Z,24.53
2022-08-19T18:40:32.934Z,24.32
2022-08-19T18:43:20.278Z,24.52
2022-08-19T18:46:07.424Z,24.61
2022-08-19T18:48:57.819Z,24.85
2022-08-19T18:51:30.351Z,24.73
2022-08-19T18:54:01.601Z,24.95
2022-08-19T18:56:37.758Z,25.02
2022-08-19T18:59:06.730Z,24.81
2022-08-19T19:01:40.246Z,24.53
2022-08-19T19:04:10.886Z,24.54
2022-08-19T19:06:42.808Z,24.64
2022-08-19T19:09:15.608Z,24.63
2022-08-19T19:11:50.589Z,24.73
2022-08-19T19:14:46.062Z,24.87
2022-08-19T19:17:15.443Z,25.17
2022-08-19T19:19:44.375Z,25.34
2022-08-19T19:22:17.756Z,25.28
2022-08-19T19:24:46.917Z,25.13
2022-08-19T19:27:18.684Z,25.14
2022-08-19T19:29:51.688Z,25.23
2022-08-19T19:32:31.903Z,24.68
2022-08-19T19:35:01.276Z,24.61
2022-08-19T19:37:30.366Z,24.47
2022-08-19T19:39:58.477Z,24.46
2022-08-19T19:42:27.198Z,24.35
2022-08-19T19:44:56.132Z,24.12
2022-08-19T19:47:25.883Z,24.31
2022-08-19T19:50:14.767Z,24.14
2022-08-19T19:52:47.384Z,23.99
2022-08-19T19:55:18.692Z,23.97
2022-08-19T19:57:49.084Z,23.98
2022-08-19T20:00:19.195Z,23.94
2022-08-19T20:02:50.907Z,24.04
2022-08-19T20:05:23.074Z,24.19
2022-08-19T20:08:12.941Z,24.42
2022-08-19T20:10:43.738Z,24.14
2022-08-19T20:13:15.660Z,24.23
2022-08-19T20:15:44.091Z,24.16
2022-08-19T20:18:16.248Z,24.17
2022-08-19T20:20:50.346Z,24.30
2022-08-19T20:23:22.951Z,24.57
2022-08-19T20:25:54.861Z,24.48
2022-08-19T20:28:23.430Z,24.49
2022-08-19T20:30:54.852Z,24.67
2022-08-19T20:33:23.418Z,24.57
2022-08-19T20:35:52.898Z,24.48
2022-08-19T20:38:21.869Z,24.59
2022-08-19T20:40:51.388Z,24.62
2022-08-19T20:43:20.851Z,24.82
2022-08-19T20:45:49.272Z,25.04
2022-08-19T20:48:18.975Z,24.94
2022-08-19T20:50:48.465Z,24.78
2022-08-19T20:53:19.794Z,24.79
2022-08-19T20:55:51.643Z,24.74
2022-08-19T20:58:22.438Z,24.81
2022-08-19T21:00:52.971Z,24.73
2022-08-19T21:03:24.777Z,24.70
2022-08-19T21:05:53.903Z,24.59
2022-08-19T21:08:24.684Z,24.52
2022-08-19T21:10:56.257Z,24.44
2022-08-19T21:13:26.208Z,24.64
2022-08-19T21:15:54.779Z,24.58
2022-08-19T21:18:25.760Z,24.58
2022-08-19T21:20:55.689Z,24.37
2022-08-19T21:23:25.840Z,24.60
2022-08-19T21:25:57.026Z,24.75
2022-08-19T21:28:29.864Z,24.64
2022-08-19T21:31:07.159Z,24.57
2022-08-19T21:33:37.059Z,24.57
2022-08-19T21:50:51.135Z,23.95
2022-08-19T21:53:22.831Z,24.06
2022-08-19T21:55:54.074Z,24.00
2022-08-19T21:58:29.918Z,24.09
2022-08-19T22:01:01.845Z,24.13
2022-08-19T22:03:31.145Z,24.14
2022-08-19T22:05:59.526Z,24.38
2022-08-19T22:08:28.442Z,24.29
2022-08-19T22:10:58.958Z,24.31
2022-08-19T22:13:27.560Z,24.33
2022-08-19T22:15:56.277Z,24.11
2022-08-19T22:18:24.838Z,23.98
2022-08-19T22:20:53.493Z,23.82
2022-08-19T22:23:21.560Z,23.91
2022-08-19T22:25:50.722Z,24.21
2022-08-19T22:28:27.829Z,24.08
2022-08-19T22:30:57.175Z,24.12
2022-08-19T22:33:27.833Z,24.02
2022-08-19T22:35:56.938Z,23.75
2022-08-19T22:38:26.183Z,23.93
2022-08-19T22:40:56.612Z,23.89
2022-08-19T22:43:30.165Z,23.75
2022-08-19T22:46:00.553Z,23.76
2022-08-19T22:48:30.714Z,23.72
2022-08-19T22:51:19.085Z,23.76
2022-08-19T22:53:48.173Z,23.82
2022-08-19T22:56:19.420Z,23.81
2022-08-19T22:58:50.028Z,23.72
2022-08-19T23:01:27.472Z,23.68
2022-08-19T23:03:59.945Z,23.39
2022-08-19T23:06:33.763Z,23.46
2022-08-19T23:09:08.145Z,23.85
2022-08-19T23:11:42.208Z,23.78
2022-08-19T23:14:12.681Z,23.75
2022-08-19T23:16:42.084Z,23.79
2022-08-19T23:19:11.578Z,23.88
2022-08-19T23:21:42.180Z,23.81
2022-08-19T23:24:11.522Z,24.20
2022-08-19T23:27:00.193Z,24.42
2022-08-19T23:29:48.929Z,24.09
2022-08-19T23:32:21.698Z,23.89
2022-08-19T23:34:50.781Z,24.05
2022-08-19T23:37:18.695Z,23.98
2022-08-19T23:39:47.436Z,24.05
2022-08-19T23:42:15.492Z,23.88
2022-08-19T23:44:52.377Z,24.05
2022-08-19T23:47:23.809Z,24.17
2022-08-19T23:49:52.758Z,24.12
2022-08-19T23:52:20.566Z,24.02
2022-08-19T23:54:49.633Z,23.68
2022-08-19T23:57:19.913Z,23.63
2022-08-19T23:59:48.511Z,23.84
